Time;durP1;ratioP1;P1;durP2;ratioP2;P2;SDS_P1;SDS_P2;PMS_P1;PMS_P2;Temp;Humidity;BMP_temperature;BMP_pressure;BME280_temperature;BME280_humidity;BME280_pressure;Samples;Min_cycle;Max_cycle;Signal;HPM_P1;HPM_P2
2022/04/15 00:00:38;;;;;;;5.43;2.45;;;11.00;97.40;;;;;;5018155;28;20030;-67
2022/04/15 00:03:06;;;;;;;7.88;3.25;;;11.00;97.40;;;;;;5017571;28;20022;-68
2022/04/15 00:05:36;;;;;;;9.18;3.00;;;10.90;97.40;;;;;;5016280;28;20032;-68
2022/04/15 00:08:12;;;;;;;6.90;2.92;;;10.90;97.60;;;;;;5023651;28;20048;-68
2022/04/15 00:10:40;;;;;;;8.45;2.90;;;10.80;97.40;;;;;;5030963;28;20415;-67
2022/04/15 00:13:12;;;;;;;4.97;2.92;;;10.80;97.50;;;;;;5017128;28;20022;-68
2022/04/15 00:15:39;;;;;;;7.10;2.92;;;10.80;97.50;;;;;;5021448;28;20318;-67
2022/04/15 00:18:05;;;;;;;6.57;2.88;;;10.80;97.60;;;;;;5036927;28;20033;-68
2022/04/15 00:20:31;;;;;;;7.35;3.53;;;10.80;97.50;;;;;;5030841;28;20045;-68
2022/04/15 00:22:59;;;;;;;10.02;3.30;;;10.80;97.50;;;;;;5024872;28;20040;-68
2022/04/15 00:25:26;;;;;;;6.32;3.20;;;10.70;97.50;;;;;;5036018;28;20448;-68
2022/04/15 00:27:51;;;;;;;7.07;3.10;;;10.60;97.30;;;;;;5017392;28;20061;-68
2022/04/15 00:30:18;;;;;;;5.93;2.80;;;10.60;97.40;;;;;;5033276;28;20053;-67
2022/04/15 00:32:43;;;;;;;5.45;2.83;;;10.50;97.40;;;;;;5036576;28;20029;-68
2022/04/15 00:35:10;;;;;;;5.68;2.90;;;10.50;97.30;;;;;;5034508;28;20069;-67
2022/04/15 00:37:38;;;;;;;6.90;3.10;;;10.50;97.30;;;;;;5029302;28;20418;-67
2022/04/15 00:40:09;;;;;;;7.53;3.53;;;10.50;97.30;;;;;;5032952;28;20086;-68
2022/04/15 00:42:35;;;;;;;6.57;2.95;;;10.40;97.30;;;;;;5033837;28;20116;-68
2022/04/15 00:45:02;;;;;;;5.97;3.00;;;10.40;97.30;;;;;;5024725;28;20120;-67
2022/04/15 00:47:37;;;;;;;7.00;3.20;;;10.30;97.30;;;;;;5034626;28;20040;-67
2022/04/15 00:50:04;;;;;;;8.50;3.15;;;10.30;97.20;;;;;;5035089;28;20517;-67
2022/04/15 00:52:34;;;;;;;6.78;3.30;;;10.20;97.10;;;;;;5019233;28;20076;-67
2022/04/15 00:55:03;;;;;;;6.13;2.92;;;10.10;96.90;;;;;;5033911;28;20030;-67
2022/04/15 00:57:30;;;;;;;6.60;3.47;;;10.10;97.30;;;;;;5019975;28;20030;-66
2022/04/15 00:59:58;;;;;;;6.47;3.80;;;10.10;97.30;;;;;;5021916;28;20037;-66
2022/04/15 01:02:26;;;;;;;9.23;3.80;;;10.10;97.00;;;;;;5021529;28;20026;-66
2022/04/15 01:04:53;;;;;;;9.60;4.35;;;10.10;97.10;;;;;;5019420;28;20076;-68
2022/04/15 01:07:22;;;;;;;7.68;4.03;;;10.10;96.90;;;;;;5035951;28;20064;-66
2022/04/15 01:09:51;;;;;;;10.63;5.00;;;10.10;97.00;;;;;;5031781;28;20331;-67
2022/04/15 01:12:20;;;;;;;8.30;4.35;;;10.10;96.80;;;;;;5023948;28;20106;-67
2022/04/15 01:14:48;;;;;;;6.65;3.50;;;10.10;96.90;;;;;;5051578;28;20453;-66
2022/04/15 01:17:14;;;;;;;9.93;3.70;;;10.00;96.80;;;;;;5031389;28;20034;-67
2022/04/15 01:19:40;;;;;;;7.07;3.70;;;9.90;96.90;;;;;;5017199;28;20506;-67
2022/04/15 01:22:14;;;;;;;7.22;3.58;;;9.80;96.80;;;;;;5015363;28;20052;-65
2022/04/15 01:24:39;;;;;;;7.35;4.57;;;9.70;96.60;;;;;;5015250;28;20026;-67
2022/04/15 01:27:08;;;;;;;9.70;4.68;;;9.70;96.50;;;;;;5019030;28;20064;-67
2022/04/15 01:29:40;;;;;;;11.48;4.20;;;9.60;96.30;;;;;;5025136;28;20052;-67
2022/04/15 01:32:07;;;;;;;8.73;4.03;;;9.50;96.30;;;;;;5029993;28;20037;-67
2022/04/15 01:34:36;;;;;;;7.43;4.32;;;9.40;96.00;;;;;;5015096;28;20026;-68
2022/04/15 01:37:04;;;;;;;7.45;4.57;;;9.40;95.60;;;;;;5021876;28;20058;-67
2022/04/15 01:39:31;;;;;;;7.25;4.43;;;9.50;95.50;;;;;;5023621;28;20034;-67
2022/04/15 01:41:57;;;;;;;9.13;4.78;;;9.50;95.60;;;;;;5017235;28;20033;-67
2022/04/15 01:44:24;;;;;;;8.00;4.57;;;9.50;95.80;;;;;;5027981;28;20410;-67
2022/04/15 01:46:49;;;;;;;10.90;4.70;;;9.50;95.80;;;;;;5026190;28;20120;-66
2022/04/15 01:49:15;;;;;;;12.18;5.20;;;9.60;96.10;;;;;;5029880;28;20708;-66
2022/04/15 01:51:41;;;;;;;9.43;4.82;;;9.60;96.10;;;;;;5025439;28;20038;-67
2022/04/15 01:54:12;;;;;;;9.13;4.85;;;9.50;95.90;;;;;;5022296;28;20025;-66
2022/04/15 01:56:44;;;;;;;10.25;4.85;;;9.50;95.90;;;;;;5038037;28;20326;-67
2022/04/15 01:59:10;;;;;;;10.60;4.95;;;9.40;95.70;;;;;;5037370;28;20034;-67
2022/04/15 02:01:36;;;;;;;9.43;4.97;;;9.40;95.90;;;;;;5027663;28;20121;-67
2022/04/15 02:04:02;;;;;;;9.60;5.28;;;9.40;95.90;;;;;;5022924;28;20021;-67
2022/04/15 02:06:28;;;;;;;9.02;5.03;;;9.40;95.90;;;;;;5032209;28;20029;-67
2022/04/15 02:08:53;;;;;;;8.40;4.85;;;9.40;95.70;;;;;;5037442;28;20028;-66
2022/04/15 02:11:19;;;;;;;9.55;4.80;;;9.30;95.50;;;;;;5034711;28;20361;-66
2022/04/15 02:13:45;;;;;;;12.45;5.28;;;9.30;95.40;;;;;;5040008;28;20049;-67
2022/04/15 02:16:11;;;;;;;9.05;5.22;;;9.30;95.00;;;;;;5032242;28;20026;-67
2022/04/15 02:18:36;;;;;;;8.30;4.82;;;9.30;95.30;;;;;;5024223;28;20026;-67
2022/04/15 02:21:02;;;;;;;9.18;4.75;;;9.30;95.40;;;;;;5026470;28;20105;-67
2022/04/15 02:23:28;;;;;;;10.43;4.80;;;9.40;95.60;;;;;;5033511;28;20025;-67
2022/04/15 02:25:53;;;;;;;7.47;4.30;;;9.40;95.90;;;;;;5033379;28;20030;-67
2022/04/15 02:28:19;;;;;;;10.25;5.13;;;9.50;96.00;;;;;;5028416;28;20093;-67
2022/04/15 02:30:48;;;;;;;10.30;4.80;;;9.50;96.30;;;;;;5037253;28;20024;-67
2022/04/15 02:33:16;;;;;;;8.50;4.78;;;9.60;96.30;;;;;;5032403;28;20021;-67
2022/04/15 02:35:42;;;;;;;11.35;5.60;;;9.60;96.50;;;;;;5017976;28;20149;-67
2022/04/15 02:38:10;;;;;;;8.48;5.00;;;9.70;96.60;;;;;;5019321;28;20045;-67
2022/04/15 02:40:36;;;;;;;8.98;5.20;;;9.70;96.50;;;;;;5019945;28;20029;-67
2022/04/15 02:43:04;;;;;;;9.70;5.15;;;9.60;96.40;;;;;;5023045;28;20056;-67
2022/04/15 02:45:30;;;;;;;9.30;4.00;;;9.60;96.30;;;;;;5037418;28;20061;-67
2022/04/15 02:47:58;;;;;;;8.02;3.97;;;9.50;96.40;;;;;;5030762;28;20068;-67
2022/04/15 02:50:24;;;;;;;6.38;4.10;;;9.50;96.20;;;;;;5030130;28;20299;-66
2022/04/15 02:52:50;;;;;;;11.55;4.97;;;9.50;96.20;;;;;;5033303;28;20013;-66
2022/04/15 02:55:18;;;;;;;10.65;4.70;;;9.60;96.30;;;;;;5043094;28;20029;-67
2022/04/15 02:57:44;;;;;;;8.48;4.93;;;9.60;96.30;;;;;;5033627;28;20066;-67
2022/04/15 03:00:12;;;;;;;9.40;4.85;;;9.70;96.40;;;;;;5033672;28;20415;-67
2022/04/15 03:02:40;;;;;;;8.30;4.80;;;9.80;96.50;;;;;;5031249;28;20068;-67
2022/04/15 03:05:09;;;;;;;12.07;5.55;;;9.90;96.80;;;;;;5034885;28;20322;-67
2022/04/15 03:07:38;;;;;;;10.63;4.88;;;10.00;97.00;;;;;;5037606;28;20061;-67
2022/04/15 03:10:05;;;;;;;6.10;4.38;;;10.00;97.10;;;;;;5038284;28;20037;-67
2022/04/15 03:12:41;;;;;;;6.88;4.22;;;10.10;97.10;;;;;;5024902;28;20116;-67
2022/04/15 03:15:11;;;;;;;11.35;4.53;;;10.10;97.10;;;;;;5031028;28;20081;-66
2022/04/15 03:17:38;;;;;;;8.13;4.32;;;10.10;97.30;;;;;;5031603;28;20111;-67
2022/04/15 03:20:04;;;;;;;6.93;4.53;;;10.10;97.00;;;;;;5031602;28;20108;-67
2022/04/15 03:22:38;;;;;;;8.40;5.00;;;10.10;96.90;;;;;;5034708;28;20025;-67
2022/04/15 03:25:07;;;;;;;11.23;5.30;;;10.20;97.30;;;;;;5017340;28;20036;-67
2022/04/15 03:27:33;;;;;;;8.32;4.40;;;10.10;97.20;;;;;;5019458;28;20131;-67
2022/04/15 03:29:59;;;;;;;7.68;3.97;;;10.10;97.10;;;;;;5017649;28;20029;-67
2022/04/15 03:32:25;;;;;;;6.22;3.95;;;10.10;97.00;;;;;;5027238;28;20415;-67
2022/04/15 03:34:57;;;;;;;7.18;4.20;;;10.00;96.90;;;;;;5021129;28;20040;-67
2022/04/15 03:37:23;;;;;;;8.23;4.93;;;9.90;97.00;;;;;;5036437;28;20156;-67
2022/04/15 03:39:50;;;;;;;7.95;3.80;;;9.90;96.90;;;;;;5021928;28;20347;-67
2022/04/15 03:42:15;;;;;;;8.00;3.92;;;9.90;96.60;;;;;;5023053;28;20423;-67
2022/04/15 03:44:41;;;;;;;8.75;4.18;;;9.80;96.60;;;;;;5026365;28;20171;-67
2022/04/15 03:47:07;;;;;;;10.27;4.20;;;9.80;96.50;;;;;;5020517;28;20048;-67
2022/04/15 03:49:33;;;;;;;10.50;4.95;;;9.80;96.40;;;;;;5029084;28;20057;-66
2022/04/15 03:52:00;;;;;;;7.70;4.10;;;9.70;96.50;;;;;;5032922;28;20030;-68
2022/04/15 03:54:28;;;;;;;10.02;4.63;;;9.80;96.30;;;;;;5017898;28;20033;-69
2022/04/15 03:56:53;;;;;;;10.68;4.75;;;9.70;96.20;;;;;;5022523;28;20033;-65
2022/04/15 03:59:19;;;;;;;10.10;4.38;;;9.70;96.20;;;;;;5028173;28;20108;-68
2022/04/15 04:01:45;;;;;;;6.53;3.50;;;9.60;96.30;;;;;;5030801;28;20057;-68
2022/04/15 04:04:11;;;;;;;7.93;4.20;;;9.40;96.40;;;;;;5034006;28;20493;-68
2022/04/15 04:06:36;;;;;;;8.10;4.25;;;9.20;96.20;;;;;;5029952;28;20061;-68
2022/04/15 04:09:05;;;;;;;7.57;4.60;;;9.00;95.60;;;;;;5017210;28;20026;-67
2022/04/15 04:11:31;;;;;;;10.27;5.30;;;9.00;95.30;;;;;;5021603;28;20061;-67
2022/04/15 04:13:56;;;;;;;9.30;4.93;;;9.00;94.50;;;;;;5025036;28;20069;-67
2022/04/15 04:16:22;;;;;;;8.25;4.85;;;8.90;94.50;;;;;;5018463;28;20022;-67
2022/04/15 04:18:48;;;;;;;10.27;5.05;;;8.80;94.40;;;;;;5022610;28;20032;-67
2022/04/15 04:21:13;;;;;;;9.10;5.47;;;8.70;94.30;;;;;;5026251;28;20105;-67
2022/04/15 04:23:39;;;;;;;8.38;5.20;;;8.70;94.00;;;;;;5032330;28;20025;-67
2022/04/15 04:26:07;;;;;;;12.00;6.15;;;8.60;93.60;;;;;;5023844;28;20026;-67
2022/04/15 04:28:33;;;;;;;12.00;6.00;;;8.60;93.30;;;;;;5033054;28;20041;-67
2022/04/15 04:30:59;;;;;;;10.20;5.60;;;8.60;93.40;;;;;;5025284;28;20367;-67
2022/04/15 04:33:27;;;;;;;10.07;5.97;;;8.60;93.60;;;;;;5023688;28;20022;-67
2022/04/15 04:35:53;;;;;;;12.55;6.25;;;8.60;93.70;;;;;;5031202;28;20351;-67
2022/04/15 04:38:21;;;;;;;9.85;5.82;;;8.60;93.80;;;;;;5026408;28;20057;-67
2022/04/15 04:40:47;;;;;;;10.80;5.82;;;8.60;93.90;;;;;;5022678;28;20029;-67
2022/04/15 04:43:12;;;;;;;13.75;6.63;;;8.50;93.80;;;;;;5028844;28;20091;-67
2022/04/15 04:45:38;;;;;;;12.07;6.18;;;8.50;93.50;;;;;;5031094;28;20353;-67
2022/04/15 04:48:05;;;;;;;9.93;6.15;;;8.50;93.60;;;;;;5030306;28;20033;-67
2022/04/15 04:50:31;;;;;;;12.40;5.90;;;8.50;93.50;;;;;;5031138;28;20079;-67
2022/04/15 04:52:58;;;;;;;10.65;5.85;;;8.50;93.40;;;;;;5034595;28;20321;-67
2022/04/15 04:55:23;;;;;;;10.27;6.65;;;8.50;93.50;;;;;;5027393;28;20057;-67
2022/04/15 04:57:49;;;;;;;12.80;6.20;;;8.50;93.50;;;;;;5029053;28;20061;-67
2022/04/15 05:00:16;;;;;;;8.88;6.00;;;8.60;93.50;;;;;;5033865;28;20333;-67
2022/04/15 05:02:45;;;;;;;11.93;6.75;;;8.60;93.80;;;;;;5027375;28;20030;-67
2022/04/15 05:05:14;;;;;;;10.32;6.13;;;8.70;93.90;;;;;;5016119;28;20034;-67
2022/04/15 05:07:40;;;;;;;12.80;6.57;;;8.80;94.10;;;;;;5028815;28;20032;-67
2022/04/15 05:10:07;;;;;;;8.48;5.68;;;8.90;94.70;;;;;;5033790;28;20096;-67
2022/04/15 05:12:32;;;;;;;7.80;5.68;;;9.10;95.30;;;;;;5035607;28;20025;-67
2022/04/15 05:14:58;;;;;;;11.75;6.20;;;9.20;95.70;;;;;;5025761;28;20504;-67
2022/04/15 05:17:26;;;;;;;12.77;6.53;;;9.30;96.00;;;;;;5030075;28;20048;-66
2022/04/15 05:19:52;;;;;;;11.18;6.32;;;9.40;96.40;;;;;;5023780;28;20096;-67
2022/04/15 05:22:18;;;;;;;8.48;5.70;;;9.50;96.70;;;;;;5030984;28;20041;-67
2022/04/15 05:24:44;;;;;;;10.52;5.90;;;9.60;96.80;;;;;;5020482;28;20048;-67
2022/04/15 05:27:10;;;;;;;8.75;5.28;;;9.60;96.90;;;;;;5021199;28;20030;-69
2022/04/15 05:29:36;;;;;;;9.75;5.28;;;9.70;97.10;;;;;;5024943;28;20025;-68
2022/04/15 05:32:05;;;;;;;9.32;5.60;;;9.80;97.10;;;;;;5029757;28;20079;-67
2022/04/15 05:34:30;;;;;;;7.38;5.13;;;9.90;97.40;;;;;;5017030;28;20042;-67
2022/04/15 05:36:59;;;;;;;8.07;5.13;;;10.00;97.50;;;;;;5029681;28;20300;-68
2022/04/15 05:39:27;;;;;;;8.13;4.85;;;10.10;97.40;;;;;;5021412;28;20040;-68
2022/04/15 05:41:53;;;;;;;8.15;4.43;;;10.20;97.40;;;;;;5028165;28;20025;-68
2022/04/15 05:44:19;;;;;;;7.55;4.68;;;10.20;97.70;;;;;;5025017;28;20449;-67
2022/04/15 05:46:47;;;;;;;10.20;4.15;;;10.20;97.80;;;;;;5034383;28;20037;-68
2022/04/15 05:49:14;;;;;;;9.27;5.03;;;10.30;97.80;;;;;;5020210;28;20587;-68
2022/04/15 05:51:45;;;;;;;8.05;4.57;;;10.40;97.90;;;;;;5020668;28;20022;-67
2022/04/15 05:54:11;;;;;;;7.40;4.60;;;10.40;98.00;;;;;;5020795;28;20041;-68
2022/04/15 05:56:40;;;;;;;5.82;3.72;;;10.50;98.00;;;;;;5021098;28;20133;-67
2022/04/15 05:59:06;;;;;;;7.80;4.10;;;10.60;97.90;;;;;;5034495;28;20067;-67
2022/04/15 06:01:37;;;;;;;6.53;4.20;;;10.70;98.00;;;;;;5021717;28;20030;-67
2022/04/15 06:04:03;;;;;;;9.07;4.55;;;10.80;98.00;;;;;;5024363;28;20037;-68
2022/04/15 06:06:29;;;;;;;7.07;4.03;;;11.00;97.90;;;;;;5027166;28;20037;-68
2022/04/15 06:08:55;;;;;;;7.63;3.78;;;11.20;98.00;;;;;;5036436;28;20026;-67
2022/04/15 06:11:21;;;;;;;7.40;5.68;;;11.30;98.00;;;;;;5028569;28;20104;-67
2022/04/15 06:13:47;;;;;;;11.32;8.95;;;11.60;98.00;;;;;;5035632;28;20041;-68
2022/04/15 06:16:25;;;;;;;11.20;8.65;;;11.90;98.00;;;;;;5032150;28;20092;-68
2022/04/15 06:18:51;;;;;;;14.57;10.40;;;12.20;97.80;;;;;;5022351;28;20112;-67
2022/04/15 06:21:17;;;;;;;9.93;6.30;;;12.40;97.40;;;;;;5020223;28;20101;-67
2022/04/15 06:23:42;;;;;;;11.10;5.50;;;12.60;96.70;;;;;;5022748;28;20029;-67
2022/04/15 06:26:08;;;;;;;7.40;4.70;;;12.90;96.30;;;;;;5032629;28;20025;-67
2022/04/15 06:28:34;;;;;;;8.82;4.88;;;13.10;95.50;;;;;;5037452;28;20112;-67
2022/04/15 06:30:59;;;;;;;22.80;15.30;;;13.40;95.10;;;;;;5026418;28;20105;-67
2022/04/15 06:33:28;;;;;;;19.83;12.48;;;13.60;94.40;;;;;;5027189;28;20060;-67
2022/04/15 06:35:53;;;;;;;18.95;11.48;;;13.70;94.00;;;;;;5022333;28;20022;-67
2022/04/15 06:38:19;;;;;;;14.52;10.77;;;13.80;93.80;;;;;;5022051;28;20475;-67
2022/04/15 06:40:47;;;;;;;11.80;7.88;;;13.90;93.80;;;;;;5024848;28;20048;-67
2022/04/15 06:43:14;;;;;;;13.75;7.30;;;14.00;93.00;;;;;;5027956;28;20061;-68
2022/04/15 06:45:40;;;;;;;12.93;6.93;;;13.90;93.30;;;;;;5032877;28;20025;-67
2022/04/15 06:48:06;;;;;;;11.18;8.30;;;14.00;93.30;;;;;;5024038;28;20018;-67
2022/04/15 06:50:32;;;;;;;11.68;7.28;;;14.20;93.00;;;;;;5023952;28;20018;-67
2022/04/15 06:52:58;;;;;;;16.25;8.57;;;14.30;92.20;;;;;;5035134;28;20029;-67
2022/04/15 06:55:23;;;;;;;13.07;8.60;;;14.50;92.30;;;;;;5029992;28;20048;-68
2022/04/15 06:57:49;;;;;;;13.00;8.25;;;14.40;92.20;;;;;;5031133;28;20452;-67
2022/04/15 07:00:15;;;;;;;16.15;9.38;;;14.50;92.50;;;;;;5021548;28;20040;-67
2022/04/15 07:02:41;;;;;;;15.50;9.57;;;14.60;91.90;;;;;;5033038;28;20480;-68
2022/04/15 07:05:09;;;;;;;14.20;9.60;;;14.60;92.30;;;;;;5033291;28;20037;-67
2022/04/15 07:07:38;;;;;;;17.15;9.45;;;14.70;92.10;;;;;;5032439;28;20112;-67
2022/04/15 07:10:06;;;;;;;12.75;9.30;;;14.70;91.90;;;;;;5032159;28;20072;-67
2022/04/15 07:12:32;;;;;;;15.73;9.23;;;14.80;91.80;;;;;;5031234;28;20034;-67
2022/04/15 07:14:58;;;;;;;19.77;10.90;;;15.00;90.80;;;;;;5025260;28;20387;-67
2022/04/15 07:17:24;;;;;;;15.18;10.68;;;15.00;90.90;;;;;;5024876;28;20028;-67
2022/04/15 07:19:53;;;;;;;15.80;10.27;;;15.00;90.80;;;;;;5020681;28;20466;-67
2022/04/15 07:22:19;;;;;;;12.68;8.70;;;15.00;90.10;;;;;;5023562;28;20060;-67
2022/04/15 07:24:46;;;;;;;12.52;8.20;;;15.10;90.10;;;;;;5022527;28;20476;-67
2022/04/15 07:27:15;;;;;;;13.43;8.90;;;15.20;90.00;;;;;;5021284;28;20052;-67
2022/04/15 07:29:41;;;;;;;12.30;7.70;;;15.40;89.50;;;;;;5021632;28;20104;-67
2022/04/15 07:32:08;;;;;;;11.23;6.82;;;15.30;90.40;;;;;;5024027;28;20024;-67
2022/04/15 07:34:37;;;;;;;14.93;8.30;;;15.50;89.20;;;;;;5020545;28;20104;-67
2022/04/15 07:37:04;;;;;;;15.57;9.27;;;15.70;86.40;;;;;;5026413;28;20112;-68
2022/04/15 07:39:30;;;;;;;12.07;7.57;;;15.80;86.10;;;;;;5037045;28;20079;-67
2022/04/15 07:41:58;;;;;;;9.45;6.75;;;15.90;85.70;;;;;;5026957;28;20044;-67
2022/04/15 07:44:23;;;;;;;13.98;7.35;;;16.00;85.60;;;;;;5025041;28;20024;-68
2022/04/15 07:46:49;;;;;;;13.73;8.60;;;16.10;85.10;;;;;;5024795;28;20030;-67
2022/04/15 07:49:15;;;;;;;17.58;9.55;;;16.10;85.40;;;;;;5029112;28;20140;-67
2022/04/15 07:51:42;;;;;;;14.32;9.60;;;16.50;84.70;;;;;;5031284;28;20418;-67
2022/04/15 07:54:08;;;;;;;15.10;10.55;;;16.70;82.80;;;;;;5035313;28;20390;-67
2022/04/15 07:56:34;;;;;;;12.70;8.55;;;16.90;80.90;;;;;;5028106;28;20020;-67
2022/04/15 07:59:01;;;;;;;17.38;10.52;;;17.00;82.10;;;;;;5023412;28;20092;-67
2022/04/15 08:01:27;;;;;;;12.75;8.57;;;17.70;80.40;;;;;;5028733;28;20484;-66
2022/04/15 08:03:54;;;;;;;14.43;7.55;;;18.50;78.00;;;;;;5031118;28;20026;-67
2022/04/15 08:06:22;;;;;;;11.52;8.60;;;18.70;77.90;;;;;;5026369;28;20272;-67
2022/04/15 08:08:49;;;;;;;11.27;7.90;;;18.80;75.70;;;;;;5025861;28;20195;-67
2022/04/15 08:11:17;;;;;;;11.60;8.70;;;18.80;76.70;;;;;;5028988;28;20032;-67
2022/04/15 08:13:43;;;;;;;13.35;7.35;;;18.70;75.60;;;;;;5024266;28;20330;-67
2022/04/15 08:16:09;;;;;;;15.45;8.38;;;18.50;77.70;;;;;;5028579;28;20025;-67
2022/04/15 08:18:34;;;;;;;11.05;7.50;;;18.60;77.20;;;;;;5026986;28;20034;-66
2022/04/15 08:21:00;;;;;;;10.30;7.90;;;18.60;77.50;;;;;;5017088;28;20030;-67
2022/04/15 08:23:27;;;;;;;12.23;8.07;;;18.20;78.70;;;;;;5025546;28;20030;-67
2022/04/15 08:25:53;;;;;;;12.25;8.32;;;18.50;78.10;;;;;;5024408;28;20104;-66
2022/04/15 08:28:19;;;;;;;15.23;9.13;;;19.10;75.80;;;;;;5023303;28;20038;-66
2022/04/15 08:30:45;;;;;;;13.68;9.13;;;19.20;74.90;;;;;;5027354;28;20414;-66
2022/04/15 08:33:11;;;;;;;16.52;9.70;;;19.40;74.60;;;;;;5026065;28;20021;-69
2022/04/15 08:35:38;;;;;;;12.60;8.98;;;19.50;74.60;;;;;;5022811;28;20026;-69
2022/04/15 08:38:07;;;;;;;11.40;8.20;;;19.50;74.40;;;;;;5023516;28;20041;-69
2022/04/15 08:40:35;;;;;;;12.60;8.52;;;20.00;74.70;;;;;;5023478;28;20453;-68
2022/04/15 08:43:03;;;;;;;10.68;7.63;;;20.30;71.50;;;;;;5029193;28;20057;-69
2022/04/15 08:45:30;;;;;;;11.85;9.05;;;20.60;71.90;;;;;;5016578;28;20030;-68
2022/04/15 08:47:59;;;;;;;11.40;8.77;;;21.20;70.00;;;;;;5027567;28;20026;-68
2022/04/15 08:50:26;;;;;;;14.68;10.32;;;21.20;69.90;;;;;;5024541;28;20041;-67
2022/04/15 08:52:55;;;;;;;11.00;8.10;;;21.10;69.20;;;;;;5020246;28;20540;-67
2022/04/15 08:55:21;;;;;;;12.20;9.32;;;20.80;71.00;;;;;;5022956;28;20029;-68
2022/04/15 08:57:48;;;;;;;13.05;8.27;;;21.10;70.30;;;;;;5027951;28;20041;-68
2022/04/15 09:00:14;;;;;;;12.52;9.15;;;21.30;69.50;;;;;;5020154;28;20057;-68
2022/04/15 09:02:40;;;;;;;11.57;9.15;;;21.40;68.50;;;;;;5026059;28;20033;-68
2022/04/15 09:05:06;;;;;;;12.88;8.55;;;21.20;69.50;;;;;;5027590;28;20072;-68
2022/04/15 09:07:34;;;;;;;12.38;8.77;;;21.70;68.30;;;;;;5022648;28;20022;-68
2022/04/15 09:10:03;;;;;;;11.73;8.60;;;22.00;67.00;;;;;;5018131;28;20033;-68
2022/04/15 09:12:29;;;;;;;12.38;8.60;;;22.20;67.20;;;;;;5022232;28;20105;-68
2022/04/15 09:14:59;;;;;;;10.43;6.95;;;22.20;66.10;;;;;;5029528;28;20049;-68
2022/04/15 09:17:28;;;;;;;11.98;7.72;;;21.70;65.20;;;;;;5022681;28;20060;-67
2022/04/15 09:19:55;;;;;;;10.15;6.38;;;21.60;65.60;;;;;;5031922;28;20025;-67
2022/04/15 09:22:21;;;;;;;9.55;5.70;;;21.90;65.30;;;;;;5031921;28;20037;-68
2022/04/15 09:24:47;;;;;;;9.43;6.22;;;21.60;64.60;;;;;;5030626;28;20402;-68
2022/04/15 09:27:14;;;;;;;10.65;5.93;;;21.90;63.90;;;;;;5019758;28;20354;-68
2022/04/15 09:29:40;;;;;;;9.45;6.60;;;22.40;63.80;;;;;;5040159;28;20057;-68
2022/04/15 09:32:07;;;;;;;9.88;7.10;;;22.40;63.30;;;;;;5030136;28;20025;-69
2022/04/15 09:34:33;;;;;;;9.45;7.00;;;22.50;62.30;;;;;;5022670;28;20032;-67
2022/04/15 09:37:04;;;;;;;10.23;7.72;;;22.60;61.50;;;;;;5029203;28;20025;-67
2022/04/15 09:39:30;;;;;;;15.65;11.20;;;22.60;62.90;;;;;;5024238;28;20061;-67
2022/04/15 09:41:56;;;;;;;14.77;11.25;;;21.80;62.70;;;;;;5025015;28;20064;-67
2022/04/15 09:44:31;;;;;;;12.30;8.57;;;21.60;63.10;;;;;;5019756;28;20045;-67
2022/04/15 09:47:03;;;;;;;13.35;8.95;;;21.70;63.70;;;;;;5032418;28;20092;-67
2022/04/15 09:49:32;;;;;;;11.27;8.32;;;21.60;64.60;;;;;;5022134;28;20030;-67
2022/04/15 09:51:59;;;;;;;12.15;8.68;;;21.90;65.00;;;;;;5034512;28;20030;-68
2022/04/15 09:54:32;;;;;;;12.60;7.70;;;22.30;63.50;;;;;;5033606;28;20041;-68
2022/04/15 09:56:59;;;;;;;11.98;7.85;;;21.60;65.40;;;;;;5032646;28;20088;-68
2022/04/15 09:59:29;;;;;;;14.32;9.43;;;21.80;65.40;;;;;;5029004;28;20716;-67
2022/04/15 10:01:58;;;;;;;11.90;7.88;;;21.20;65.40;;;;;;5017841;28;20040;-67
2022/04/15 10:04:25;;;;;;;13.18;8.60;;;20.90;66.40;;;;;;5027528;28;20029;-68
2022/04/15 10:06:52;;;;;;;12.15;7.78;;;20.80;65.80;;;;;;5026313;28;20051;-68
2022/04/15 10:09:17;;;;;;;11.52;7.78;;;20.80;65.70;;;;;;5022331;28;20152;-67
2022/04/15 10:11:52;;;;;;;12.52;7.45;;;21.50;65.00;;;;;;5026547;28;20113;-67
2022/04/15 10:14:21;;;;;;;15.07;11.13;;;21.60;66.30;;;;;;5019059;28;20050;-67
2022/04/15 10:16:47;;;;;;;11.10;7.75;;;22.40;63.80;;;;;;5022684;28;20062;-68
2022/04/15 10:19:12;;;;;;;10.70;7.78;;;22.00;62.00;;;;;;5015437;28;20422;-67
2022/04/15 10:21:44;;;;;;;11.38;7.90;;;20.90;64.30;;;;;;5025348;28;20101;-67
2022/04/15 10:24:12;;;;;;;10.30;7.25;;;20.50;65.40;;;;;;5029995;28;20053;-67
2022/04/15 10:26:42;;;;;;;13.05;8.95;;;20.20;65.90;;;;;;5017066;28;20022;-67
2022/04/15 10:29:10;;;;;;;12.27;8.38;;;20.00;66.70;;;;;;5027272;28;20357;-67
2022/04/15 10:31:38;;;;;;;12.45;9.05;;;19.50;68.30;;;;;;5028094;28;20024;-67
2022/04/15 10:34:11;;;;;;;12.00;8.10;;;19.50;68.50;;;;;;5018381;28;20026;-67
2022/04/15 10:36:38;;;;;;;12.07;9.27;;;20.30;67.20;;;;;;5022721;28;20033;-67
2022/04/15 10:39:04;;;;;;;14.30;9.65;;;20.50;66.80;;;;;;5034988;28;20366;-67
2022/04/15 10:41:52;;;;;;;13.23;8.13;;;21.30;65.40;;;;;;5032674;28;20021;-67
2022/04/15 10:44:39;;;;;;;13.43;8.07;;;21.90;64.70;;;;;;5032718;28;20025;-68
2022/04/15 10:47:12;;;;;;;13.80;9.70;;;21.70;64.60;;;;;;5028588;28;20032;-67
2022/04/15 10:49:52;;;;;;;13.88;8.52;;;21.20;65.20;;;;;;5035536;28;20029;-68
2022/04/15 10:52:21;;;;;;;10.93;8.13;;;20.50;66.20;;;;;;5029259;28;20038;-67
2022/04/15 10:54:51;;;;;;;8.73;6.15;;;20.70;64.30;;;;;;5036649;28;20037;-67
2022/04/15 10:57:22;;;;;;;9.82;7.25;;;21.50;62.90;;;;;;5046184;28;20109;-68
2022/04/15 11:02:50;;;;;;;10.20;6.05;;;22.30;61.60;;;;;;5036613;28;20036;-68
2022/04/15 11:05:43;;;;;;;10.93;5.88;;;21.60;61.80;;;;;;5028165;28;20041;-68
2022/04/15 11:08:17;;;;;;;9.63;6.65;;;22.00;62.10;;;;;;5020834;28;20372;-66
2022/04/15 11:11:03;;;;;;;8.75;6.45;;;22.00;61.70;;;;;;5022424;28;20037;-67
2022/04/15 11:13:39;;;;;;;9.40;6.55;;;21.80;61.10;;;;;;5029074;28;20476;-68
2022/04/15 11:16:11;;;;;;;9.65;6.43;;;21.60;61.90;;;;;;5030625;28;20061;-67
2022/04/15 11:18:43;;;;;;;8.23;5.97;;;22.20;60.50;;;;;;5026703;28;20025;-67
2022/04/15 11:21:16;;;;;;;9.63;6.75;;;22.90;60.50;;;;;;5025385;28;20022;-67
2022/04/15 11:23:56;;;;;;;10.40;7.30;;;22.40;61.00;;;;;;5027399;28;20042;-67
2022/04/15 11:26:24;;;;;;;9.48;6.85;;;22.10;61.80;;;;;;5029737;28;20025;-67
2022/04/15 11:28:51;;;;;;;9.15;5.95;;;21.90;61.90;;;;;;5025464;28;20061;-68
2022/04/15 11:31:34;;;;;;;8.55;4.90;;;21.20;62.10;;;;;;5026264;28;20031;-68
2022/04/15 11:34:11;;;;;;;7.80;5.07;;;20.60;62.40;;;;;;5024327;28;20083;-68
2022/04/15 11:36:43;;;;;;;9.75;5.38;;;20.40;62.90;;;;;;5025642;28;20017;-66
2022/04/15 11:39:14;;;;;;;9.45;5.65;;;20.80;63.00;;;;;;5027169;28;20033;-68
2022/04/15 11:41:47;;;;;;;10.60;5.90;;;20.50;62.60;;;;;;5029776;28;20420;-67
2022/04/15 11:44:16;;;;;;;10.82;6.50;;;19.90;64.10;;;;;;5018474;28;20038;-67
2022/04/15 11:46:45;;;;;;;8.95;6.55;;;19.40;64.50;;;;;;5022336;28;20037;-66
2022/04/15 11:49:26;;;;;;;8.82;6.07;;;19.70;64.70;;;;;;5029950;28;20025;-66
2022/04/15 11:52:01;;;;;;;9.90;6.43;;;20.70;62.70;;;;;;5021200;28;20022;-66
2022/04/15 11:54:35;;;;;;;11.15;5.75;;;21.00;61.80;;;;;;5014258;28;20525;-68
2022/04/15 11:57:05;;;;;;;8.13;5.45;;;21.00;62.80;;;;;;5020336;28;20081;-66
2022/04/15 11:59:42;;;;;;;8.73;4.72;;;21.50;59.60;;;;;;5024571;28;20342;-67
2022/04/15 12:02:10;;;;;;;6.40;3.88;;;22.10;60.00;;;;;;5022746;28;20021;-67
2022/04/15 12:04:58;;;;;;;8.23;5.30;;;22.60;59.30;;;;;;5018757;28;20037;-66
2022/04/15 12:07:26;;;;;;;6.93;4.38;;;21.90;57.50;;;;;;5022038;28;20030;-67
2022/04/15 12:09:54;;;;;;;8.35;4.85;;;21.20;58.90;;;;;;5027539;28;20113;-67
2022/04/15 12:12:25;;;;;;;7.45;4.40;;;20.80;60.00;;;;;;5026823;28;20065;-67
2022/04/15 12:14:56;;;;;;;8.13;5.38;;;20.50;61.80;;;;;;5021921;28;20037;-67
2022/04/15 12:17:24;;;;;;;8.55;5.05;;;20.50;60.70;;;;;;5024560;28;20034;-67
2022/04/15 12:19:51;;;;;;;8.65;5.28;;;20.60;61.00;;;;;;5026562;28;20417;-67
2022/04/15 12:22:19;;;;;;;8.73;4.65;;;20.30;61.00;;;;;;5021370;28;20417;-66
2022/04/15 12:24:47;;;;;;;7.40;4.63;;;20.00;61.80;;;;;;5024682;28;20103;-66
2022/04/15 12:27:19;;;;;;;7.95;4.95;;;20.00;62.10;;;;;;5024063;28;20041;-66
2022/04/15 12:29:47;;;;;;;8.18;4.45;;;20.50;61.30;;;;;;5022921;28;20026;-68
2022/04/15 12:32:29;;;;;;;7.90;4.20;;;21.10;61.00;;;;;;5021410;28;20059;-67
2022/04/15 12:34:55;;;;;;;7.03;4.00;;;21.80;58.80;;;;;;5021242;28;20065;-67
2022/04/15 12:37:44;;;;;;;7.18;3.65;;;22.20;57.10;;;;;;5018556;28;20434;-67
2022/04/15 12:40:19;;;;;;;6.57;4.63;;;22.40;57.10;;;;;;5019448;28;20489;-68
2022/04/15 12:42:49;;;;;;;6.32;4.22;;;21.70;57.00;;;;;;5019794;28;20061;-66
2022/04/15 12:45:19;;;;;;;6.40;3.88;;;21.20;58.30;;;;;;5018599;28;20029;-67
2022/04/15 12:48:09;;;;;;;6.88;3.70;;;21.20;60.50;;;;;;5022472;28;20466;-66
2022/04/15 12:50:36;;;;;;;7.30;3.42;;;21.40;58.20;;;;;;5043038;28;20109;-68
2022/04/15 12:53:24;;;;;;;5.25;3.42;;;21.60;58.30;;;;;;5022672;28;20030;-66